Del Norte — WDC2280 — position and weather

sailwx.info

Track history (hours):
 
Tides and Currents Weather Stations Pressure Air Temp Water Temp Dewpoint Dewpoint Depression Visibility Wind Speed Wind Dir Waves Ship Positions

Del Norte

Owner: Golden Gate Bridge,Hwy & Transportation District, Larkspur, CA. More information available from US FCC via Universal Licensing System and Coast Guard Vessel Documentation Center.

Last reported at 2015-Apr-18 04:33 UTC. Time now 2015-Apr-18 16:44 UTC.
Position N 37°48' W 122°24'.

Length 48 m.

Type: High speed craft. MMSI: 366990520.

Date/timePositionNaut miles runAvg speedWind from/ knotsBaromVisibWave heightAir tempDewpointWater temp
2015-Apr-18 04:33N 37°48' W 122°24'10 9.9
2015-Apr-18 03:33N 37°56' W 122°30'0 0.1
2015-Apr-18 02:33N 37°56' W 122°30'10 9.7
2015-Apr-18 01:33N 37°48' W 122°23'1010.3
2015-Apr-18 00:34N 37°57' W 122°30'7 6.9
2015-Apr-17 23:33N 37°51' W 122°25'4 3.6
2015-Apr-17 22:34N 37°48' W 122°23'1010.3
2015-Apr-17 21:33N 37°57' W 122°31'9 8.7
2015-Apr-17 20:33N 37°50' W 122°24'9 8.7
2015-Apr-17 19:33N 37°57' W 122°30'6 6.2
2015-Apr-17 18:34N 37°52' W 122°25'5 5.4
2015-Apr-17 17:34N 37°56' W 122°30'3 2.5
2015-Apr-17 16:33N 37°55' W 122°27'3 3.4
2015-Apr-17 15:33N 37°57' W 122°31'0 0.0
2015-Apr-17 14:33N 37°57' W 122°31'0 0.0
2015-Apr-17 13:33N 37°57' W 122°31'0 0.0
2015-Apr-17 12:33N 37°57' W 122°31'0 0.0
2015-Apr-17 11:33N 37°57' W 122°31'0 0.0
2015-Apr-17 10:33N 37°57' W 122°31'0 0.0
2015-Apr-17 09:33N 37°57' W 122°31'0 0.0
2015-Apr-17 08:33N 37°57' W 122°31'0 0.0
2015-Apr-17 07:33N 37°57' W 122°31'0 0.0
2015-Apr-17 06:34N 37°57' W 122°31'0 0.0
2015-Apr-17 05:33N 37°57' W 122°31'0 0.0
2015-Apr-17 04:33N 37°57' W 122°31'0 0.0
2015-Apr-17 03:33N 37°57' W 122°31'0 0.0
2015-Apr-17 02:33N 37°57' W 122°31'0 0.0
2015-Apr-17 01:34N 37°57' W 122°31'0 0.0
2015-Apr-17 00:33N 37°57' W 122°31'0 0.0
2015-Apr-16 23:33N 37°57' W 122°31'0 0.0
2015-Apr-16 22:33N 37°57' W 122°31'0 0.0
2015-Apr-16 21:33N 37°57' W 122°31'0 0.0
2015-Apr-16 20:33N 37°57' W 122°31'0 0.0
2015-Apr-16 19:33N 37°57' W 122°31'0 0.0
2015-Apr-16 18:33N 37°57' W 122°31'0 0.0
2015-Apr-16 17:33N 37°57' W 122°31'0 0.0
2015-Apr-16 16:33N 37°57' W 122°31'0 0.0
2015-Apr-16 15:33N 37°57' W 122°31'0 0.0
2015-Apr-16 14:33N 37°57' W 122°31'0 0.0
2015-Apr-16 13:33N 37°57' W 122°31'0 0.0
2015-Apr-16 12:33N 37°57' W 122°31'0 0.0
2015-Apr-16 11:33N 37°57' W 122°31'0 0.0
2015-Apr-16 10:33N 37°57' W 122°31'0 0.0
2015-Apr-16 09:33N 37°57' W 122°31'0 0.0
2015-Apr-16 08:33N 37°57' W 122°31'0 0.0
2015-Apr-16 07:33N 37°57' W 122°31'0 0.0
2015-Apr-16 06:33N 37°57' W 122°31'0 0.0
2015-Apr-16 05:33N 37°57' W 122°31'0 0.0
2015-Apr-16 04:33N 37°57' W 122°31'0 0.0
2015-Apr-16 03:33N 37°57' W 122°31'0 0.0
2015-Apr-16 02:33N 37°57' W 122°31'0 0.0
2015-Apr-16 01:33N 37°57' W 122°31'0 0.0
2015-Apr-16 00:33N 37°57' W 122°31'0 0.0
2015-Apr-15 23:33N 37°57' W 122°31'0 0.0
2015-Apr-15 22:33N 37°57' W 122°31'0 0.0
2015-Apr-15 21:33N 37°57' W 122°31'0 0.0
2015-Apr-15 20:33N 37°57' W 122°31'0 0.0
2015-Apr-15 19:33N 37°57' W 122°31'0 0.0
2015-Apr-15 18:33N 37°57' W 122°31'0 0.0
2015-Apr-15 17:33N 37°57' W 122°31'0 0.0
2015-Apr-15 16:33N 37°57' W 122°31'0 0.0
2015-Apr-15 15:33N 37°57' W 122°31'0 0.0
2015-Apr-15 14:33N 37°57' W 122°31'0 0.0
2015-Apr-15 13:33N 37°57' W 122°31'0 0.0
2015-Apr-15 12:33N 37°57' W 122°31'0 0.0
2015-Apr-15 11:33N 37°57' W 122°31'0 0.0
2015-Apr-15 10:33N 37°57' W 122°31'0 0.0
2015-Apr-15 09:33N 37°57' W 122°31'0 0.0
2015-Apr-15 08:33N 37°57' W 122°31'0 0.0
2015-Apr-15 07:33N 37°57' W 122°31'0 0.0
2015-Apr-15 06:33N 37°57' W 122°31'0 0.0
2015-Apr-15 05:33N 37°57' W 122°31'0 0.0
2015-Apr-15 04:33N 37°57' W 122°31'0 0.0
2015-Apr-15 03:33N 37°57' W 122°31'0 0.0
2015-Apr-15 02:33N 37°57' W 122°31'0 0.0
2015-Apr-15 01:33N 37°57' W 122°31'0 0.0
2015-Apr-15 00:33N 37°57' W 122°31'0 0.0
2015-Apr-14 23:33N 37°57' W 122°31'0 0.0
2015-Apr-14 22:33N 37°57' W 122°31'0 0.0
2015-Apr-14 21:33N 37°57' W 122°31'0 0.0
2015-Apr-14 20:33N 37°57' W 122°31'0 0.0
2015-Apr-14 19:33N 37°57' W 122°31'0 0.0
2015-Apr-14 18:33N 37°57' W 122°31'0 0.0
2015-Apr-14 17:33N 37°57' W 122°31'0 0.0
2015-Apr-14 16:33N 37°57' W 122°31'0 0.0
2015-Apr-14 15:33N 37°57' W 122°31'0 0.0
2015-Apr-14 14:33N 37°57' W 122°31'0 0.0
2015-Apr-14 13:33N 37°57' W 122°31'0 0.0
2015-Apr-14 12:33N 37°57' W 122°31'0 0.0
2015-Apr-14 11:33N 37°57' W 122°31'0 0.0
2015-Apr-14 10:33N 37°57' W 122°31'0 0.0
2015-Apr-14 09:33N 37°57' W 122°31'0 0.0
2015-Apr-14 08:33N 37°57' W 122°31'0 0.0
2015-Apr-14 07:33N 37°57' W 122°31'0 0.0
2015-Apr-14 06:33N 37°57' W 122°31'0 0.0
2015-Apr-14 05:33N 37°57' W 122°31'0 0.0
2015-Apr-14 04:33N 37°57' W 122°31'0 0.0
2015-Apr-14 03:33N 37°57' W 122°31'0 0.0
2015-Apr-14 02:33N 37°57' W 122°31'0 0.0
2015-Apr-14 01:33N 37°57' W 122°31'0 0.0
2015-Apr-14 00:33N 37°57' W 122°31'0 0.0
2015-Apr-13 23:33N 37°57' W 122°31'0 0.0
2015-Apr-13 22:33N 37°57' W 122°31'0 0.0
2015-Apr-13 21:33N 37°57' W 122°31'0 0.0
2015-Apr-13 20:33N 37°57' W 122°31'9 8.9
2015-Apr-13 19:33N 37°50' W 122°23'9 8.8
2015-Apr-13 18:33N 37°57' W 122°30'8 7.6
2015-Apr-13 17:34N 37°51' W 122°24'7 6.9
2015-Apr-13 16:33N 37°56' W 122°30'2 2.5
2015-Apr-13 15:33N 37°55' W 122°27'8 7.5
2015-Apr-13 14:33N 37°48' W 122°24'3 2.9
2015-Apr-13 13:33N 37°51' W 122°24'8 8.0
2015-Apr-13 12:33N 37°57' W 122°30'  
Track history (hours):
 
Tides and Currents Weather Stations Pressure Air Temp Water Temp Dewpoint Dewpoint Depression Visibility Wind Speed Wind Dir Waves Ship Positions

Del Norte

Owner: Golden Gate Bridge,Hwy & Transportation District, Larkspur, CA. More information available from US FCC via Universal Licensing System and Coast Guard Vessel Documentation Center.

Last reported at 2015-Apr-18 04:33 UTC. Time now 2015-Apr-18 16:44 UTC.
Position N 37°48' W 122°24'.

Length 48 m.

Type: High speed craft. MMSI: 366990520.

Date/timePositionNaut miles runAvg speedWind from/ knotsBaromVisibWave heightAir tempDewpointWater temp
2015-Apr-18 04:33N 37°48' W 122°24'10 9.9
2015-Apr-18 03:33N 37°56' W 122°30'0 0.1
2015-Apr-18 02:33N 37°56' W 122°30'10 9.7
2015-Apr-18 01:33N 37°48' W 122°23'1010.3
2015-Apr-18 00:34N 37°57' W 122°30'7 6.9
2015-Apr-17 23:33N 37°51' W 122°25'4 3.6
2015-Apr-17 22:34N 37°48' W 122°23'1010.3
2015-Apr-17 21:33N 37°57' W 122°31'9 8.7
2015-Apr-17 20:33N 37°50' W 122°24'9 8.7
2015-Apr-17 19:33N 37°57' W 122°30'6 6.2
2015-Apr-17 18:34N 37°52' W 122°25'5 5.4
2015-Apr-17 17:34N 37°56' W 122°30'3 2.5
2015-Apr-17 16:33N 37°55' W 122°27'3 3.4
2015-Apr-17 15:33N 37°57' W 122°31'0 0.0
2015-Apr-17 14:33N 37°57' W 122°31'0 0.0
2015-Apr-17 13:33N 37°57' W 122°31'0 0.0
2015-Apr-17 12:33N 37°57' W 122°31'0 0.0
2015-Apr-17 11:33N 37°57' W 122°31'0 0.0
2015-Apr-17 10:33N 37°57' W 122°31'0 0.0
2015-Apr-17 09:33N 37°57' W 122°31'0 0.0
2015-Apr-17 08:33N 37°57' W 122°31'0 0.0
2015-Apr-17 07:33N 37°57' W 122°31'0 0.0
2015-Apr-17 06:34N 37°57' W 122°31'0 0.0
2015-Apr-17 05:33N 37°57' W 122°31'0 0.0
2015-Apr-17 04:33N 37°57' W 122°31'0 0.0
2015-Apr-17 03:33N 37°57' W 122°31'0 0.0
2015-Apr-17 02:33N 37°57' W 122°31'0 0.0
2015-Apr-17 01:34N 37°57' W 122°31'0 0.0
2015-Apr-17 00:33N 37°57' W 122°31'0 0.0
2015-Apr-16 23:33N 37°57' W 122°31'0 0.0
2015-Apr-16 22:33N 37°57' W 122°31'0 0.0
2015-Apr-16 21:33N 37°57' W 122°31'0 0.0
2015-Apr-16 20:33N 37°57' W 122°31'0 0.0
2015-Apr-16 19:33N 37°57' W 122°31'0 0.0
2015-Apr-16 18:33N 37°57' W 122°31'0 0.0
2015-Apr-16 17:33N 37°57' W 122°31'0 0.0
2015-Apr-16 16:33N 37°57' W 122°31'0 0.0
2015-Apr-16 15:33N 37°57' W 122°31'0 0.0
2015-Apr-16 14:33N 37°57' W 122°31'0 0.0
2015-Apr-16 13:33N 37°57' W 122°31'0 0.0
2015-Apr-16 12:33N 37°57' W 122°31'0 0.0
2015-Apr-16 11:33N 37°57' W 122°31'0 0.0
2015-Apr-16 10:33N 37°57' W 122°31'0 0.0
2015-Apr-16 09:33N 37°57' W 122°31'0 0.0
2015-Apr-16 08:33N 37°57' W 122°31'0 0.0
2015-Apr-16 07:33N 37°57' W 122°31'0 0.0
2015-Apr-16 06:33N 37°57' W 122°31'0 0.0
2015-Apr-16 05:33N 37°57' W 122°31'0 0.0
2015-Apr-16 04:33N 37°57' W 122°31'0 0.0
2015-Apr-16 03:33N 37°57' W 122°31'0 0.0
2015-Apr-16 02:33N 37°57' W 122°31'0 0.0
2015-Apr-16 01:33N 37°57' W 122°31'0 0.0
2015-Apr-16 00:33N 37°57' W 122°31'0 0.0
2015-Apr-15 23:33N 37°57' W 122°31'0 0.0
2015-Apr-15 22:33N 37°57' W 122°31'0 0.0
2015-Apr-15 21:33N 37°57' W 122°31'0 0.0
2015-Apr-15 20:33N 37°57' W 122°31'0 0.0
2015-Apr-15 19:33N 37°57' W 122°31'0 0.0
2015-Apr-15 18:33N 37°57' W 122°31'0 0.0
2015-Apr-15 17:33N 37°57' W 122°31'0 0.0
2015-Apr-15 16:33N 37°57' W 122°31'0 0.0
2015-Apr-15 15:33N 37°57' W 122°31'0 0.0
2015-Apr-15 14:33N 37°57' W 122°31'0 0.0
2015-Apr-15 13:33N 37°57' W 122°31'0 0.0
2015-Apr-15 12:33N 37°57' W 122°31'0 0.0
2015-Apr-15 11:33N 37°57' W 122°31'0 0.0
2015-Apr-15 10:33N 37°57' W 122°31'0 0.0
2015-Apr-15 09:33N 37°57' W 122°31'0 0.0
2015-Apr-15 08:33N 37°57' W 122°31'0 0.0
2015-Apr-15 07:33N 37°57' W 122°31'0 0.0
2015-Apr-15 06:33N 37°57' W 122°31'0 0.0
2015-Apr-15 05:33N 37°57' W 122°31'0 0.0
2015-Apr-15 04:33N 37°57' W 122°31'0 0.0
2015-Apr-15 03:33N 37°57' W 122°31'0 0.0
2015-Apr-15 02:33N 37°57' W 122°31'0 0.0
2015-Apr-15 01:33N 37°57' W 122°31'0 0.0
2015-Apr-15 00:33N 37°57' W 122°31'0 0.0
2015-Apr-14 23:33N 37°57' W 122°31'0 0.0
2015-Apr-14 22:33N 37°57' W 122°31'0 0.0
2015-Apr-14 21:33N 37°57' W 122°31'0 0.0
2015-Apr-14 20:33N 37°57' W 122°31'0 0.0
2015-Apr-14 19:33N 37°57' W 122°31'0 0.0
2015-Apr-14 18:33N 37°57' W 122°31'0 0.0
2015-Apr-14 17:33N 37°57' W 122°31'0 0.0
2015-Apr-14 16:33N 37°57' W 122°31'0 0.0
2015-Apr-14 15:33N 37°57' W 122°31'0 0.0
2015-Apr-14 14:33N 37°57' W 122°31'0 0.0
2015-Apr-14 13:33N 37°57' W 122°31'0 0.0
2015-Apr-14 12:33N 37°57' W 122°31'0 0.0
2015-Apr-14 11:33N 37°57' W 122°31'0 0.0
2015-Apr-14 10:33N 37°57' W 122°31'0 0.0
2015-Apr-14 09:33N 37°57' W 122°31'0 0.0
2015-Apr-14 08:33N 37°57' W 122°31'0 0.0
2015-Apr-14 07:33N 37°57' W 122°31'0 0.0
2015-Apr-14 06:33N 37°57' W 122°31'0 0.0
2015-Apr-14 05:33N 37°57' W 122°31'0 0.0
2015-Apr-14 04:33N 37°57' W 122°31'0 0.0
2015-Apr-14 03:33N 37°57' W 122°31'0 0.0
2015-Apr-14 02:33N 37°57' W 122°31'0 0.0
2015-Apr-14 01:33N 37°57' W 122°31'0 0.0
2015-Apr-14 00:33N 37°57' W 122°31'0 0.0
2015-Apr-13 23:33N 37°57' W 122°31'0 0.0
2015-Apr-13 22:33N 37°57' W 122°31'0 0.0
2015-Apr-13 21:33N 37°57' W 122°31'0 0.0
2015-Apr-13 20:33N 37°57' W 122°31'9 8.9
2015-Apr-13 19:33N 37°50' W 122°23'9 8.8
2015-Apr-13 18:33N 37°57' W 122°30'8 7.6
2015-Apr-13 17:34N 37°51' W 122°24'7 6.9
2015-Apr-13 16:33N 37°56' W 122°30'2 2.5
2015-Apr-13 15:33N 37°55' W 122°27'8 7.5
2015-Apr-13 14:33N 37°48' W 122°24'3 2.9
2015-Apr-13 13:33N 37°51' W 122°24'8 8.0
2015-Apr-13 12:33N 37°57' W 122°30'  

Dump ship's entire track history